Time;durP1;ratioP1;P1;durP2;ratioP2;P2;SDS_P1;SDS_P2;PMS_P1;PMS_P2;Temp;Humidity;BMP_temperature;BMP_pressure;BME280_temperature;BME280_humidity;BME280_pressure;Samples;Min_cycle;Max_cycle;Signal;HPM_P1;HPM_P2
2022/03/07 00:01:28;;;;;;;3.73;3.37;;;2.60;99.90;;;;;;5005724;28;20207;-83
2022/03/07 00:03:55;;;;;;;3.87;3.30;;;2.60;99.90;;;;;;4984699;28;20210;-83
2022/03/07 00:06:22;;;;;;;3.47;3.07;;;2.60;99.90;;;;;;5006196;28;20673;-84
2022/03/07 00:08:49;;;;;;;6.33;3.10;;;2.60;99.90;;;;;;4984723;28;20285;-83
2022/03/07 00:11:16;;;;;;;3.53;3.23;;;2.70;99.90;;;;;;5001586;28;20244;-83
2022/03/07 00:13:43;;;;;;;3.10;2.90;;;2.60;99.90;;;;;;4984590;28;20202;-82
2022/03/07 00:16:10;;;;;;;4.33;2.97;;;2.60;99.90;;;;;;4995381;28;20218;-83
2022/03/07 00:18:39;;;;;;;3.40;3.10;;;2.60;99.90;;;;;;4982350;28;20747;-83
2022/03/07 00:21:07;;;;;;;3.47;3.20;;;2.60;99.90;;;;;;4995097;28;20275;-83
2022/03/07 00:23:34;;;;;;;3.80;3.50;;;2.60;99.90;;;;;;4986966;28;20241;-82
2022/03/07 00:26:00;;;;;;;3.40;3.10;;;2.60;99.90;;;;;;4998465;28;20624;-81
2022/03/07 00:28:27;;;;;;;3.73;3.37;;;2.60;99.90;;;;;;4987212;28;20665;-82
2022/03/07 00:30:53;;;;;;;4.00;3.70;;;2.60;99.90;;;;;;5010050;28;20575;-82
2022/03/07 00:33:20;;;;;;;3.70;3.37;;;2.60;99.90;;;;;;4991101;28;20286;-82
2022/03/07 00:35:48;;;;;;;4.33;3.93;;;2.60;99.90;;;;;;4998420;28;20245;-83
2022/03/07 00:38:15;;;;;;;4.17;3.77;;;2.60;99.90;;;;;;4989526;28;20206;-83
2022/03/07 00:40:42;;;;;;;4.00;3.60;;;2.60;99.90;;;;;;4991867;28;20215;-82
2022/03/07 00:43:09;;;;;;;6.43;4.50;;;2.50;99.90;;;;;;5074125;28;20752;-82
2022/03/07 00:45:36;;;;;;;4.53;4.17;;;2.50;99.90;;;;;;5000221;28;20218;-82
2022/03/07 00:48:03;;;;;;;4.67;4.27;;;2.50;99.90;;;;;;4986661;28;20218;-83
2022/03/07 00:50:30;;;;;;;5.47;4.53;;;2.50;99.90;;;;;;5008284;28;20210;-84
2022/03/07 00:52:58;;;;;;;6.67;4.60;;;2.50;99.90;;;;;;5027670;28;20216;-83
2022/03/07 00:55:25;;;;;;;4.87;4.47;;;2.40;99.90;;;;;;5010549;28;20206;-83
2022/03/07 00:57:51;;;;;;;6.90;4.63;;;2.40;99.90;;;;;;4986308;28;20202;-82
2022/03/07 01:00:18;;;;;;;5.50;4.83;;;2.40;99.90;;;;;;4999044;28;20243;-83
2022/03/07 01:02:45;;;;;;;5.93;4.60;;;2.40;99.90;;;;;;4996807;28;20272;-77
2022/03/07 01:05:12;;;;;;;5.13;4.60;;;2.30;99.90;;;;;;4988283;28;20244;-77
2022/03/07 01:07:39;;;;;;;5.17;4.60;;;2.30;99.90;;;;;;5000140;28;20214;-77
2022/03/07 01:10:08;;;;;;;6.43;4.70;;;2.30;99.90;;;;;;5000959;28;20331;-77
2022/03/07 01:12:34;;;;;;;4.87;4.33;;;2.20;99.90;;;;;;5047601;28;20291;-76
2022/03/07 01:15:01;;;;;;;5.07;4.37;;;2.20;99.90;;;;;;4991183;28;20217;-77
2022/03/07 01:17:28;;;;;;;4.90;4.33;;;2.20;99.90;;;;;;5003393;28;20214;-76
2022/03/07 01:19:54;;;;;;;4.70;4.23;;;2.10;99.90;;;;;;4992901;28;20203;-77
2022/03/07 01:22:21;;;;;;;4.63;4.20;;;2.10;99.90;;;;;;5046556;28;20233;-83
2022/03/07 01:24:48;;;;;;;5.83;4.30;;;2.10;99.90;;;;;;5002595;28;20219;-84
2022/03/07 01:27:16;;;;;;;4.77;4.33;;;2.10;99.90;;;;;;4988912;28;20203;-82
2022/03/07 01:29:42;;;;;;;5.93;5.20;;;2.00;99.90;;;;;;4985370;28;20237;-82
2022/03/07 01:32:09;;;;;;;6.30;5.17;;;2.00;99.90;;;;;;4994502;28;20265;-83
2022/03/07 01:34:36;;;;;;;6.80;5.20;;;1.90;99.90;;;;;;4989726;28;20221;-83
2022/03/07 01:37:03;;;;;;;6.70;5.23;;;1.90;99.90;;;;;;4991424;28;20673;-83
2022/03/07 01:39:30;;;;;;;5.03;4.50;;;1.80;99.90;;;;;;4987238;28;20684;-83
2022/03/07 01:41:57;;;;;;;4.20;3.90;;;1.80;99.90;;;;;;5063144;28;20210;-83
2022/03/07 01:44:28;;;;;;;4.70;4.30;;;1.80;99.90;;;;;;5021555;28;20217;-83
2022/03/07 01:46:56;;;;;;;6.10;4.70;;;1.80;99.90;;;;;;4995473;28;20565;-87
2022/03/07 01:49:24;;;;;;;4.83;4.43;;;1.80;99.90;;;;;;5028102;28;20632;-87
2022/03/07 01:51:52;;;;;;;6.27;5.33;;;1.70;99.90;;;;;;4993848;28;20295;-87
2022/03/07 01:54:20;;;;;;;4.67;4.27;;;1.70;99.90;;;;;;5010207;28;20210;-87
2022/03/07 01:56:48;;;;;;;5.67;4.53;;;1.60;99.90;;;;;;5060226;28;20591;-87
2022/03/07 01:59:17;;;;;;;4.70;4.30;;;1.60;99.90;;;;;;5029643;28;20221;-87
2022/03/07 02:01:47;;;;;;;5.07;4.57;;;1.60;99.90;;;;;;5003069;28;20206;-86
2022/03/07 02:04:14;;;;;;;6.60;4.50;;;1.60;99.90;;;;;;4989242;28;20210;-87
2022/03/07 02:06:41;;;;;;;5.33;4.60;;;1.70;99.90;;;;;;5003157;28;20763;-87
2022/03/07 02:09:09;;;;;;;4.73;4.33;;;1.70;99.90;;;;;;4991674;28;20675;-82
2022/03/07 02:11:36;;;;;;;4.57;4.10;;;1.70;99.90;;;;;;4991631;28;20237;-82
2022/03/07 02:14:12;;;;;;;4.83;4.10;;;1.70;99.90;;;;;;4989791;28;20284;-82
2022/03/07 02:16:39;;;;;;;4.60;4.20;;;1.70;99.90;;;;;;5007222;28;20624;-82
2022/03/07 02:19:07;;;;;;;4.33;3.93;;;1.80;99.90;;;;;;4990408;28;20645;-82
2022/03/07 02:21:35;;;;;;;4.70;4.40;;;1.80;99.90;;;;;;4990714;28;20214;-83
2022/03/07 02:24:04;;;;;;;6.03;4.63;;;1.70;99.90;;;;;;4999922;28;20306;-82
2022/03/07 02:26:31;;;;;;;4.30;4.00;;;1.80;99.90;;;;;;4996979;28;20214;-82
2022/03/07 02:28:57;;;;;;;4.73;4.33;;;1.80;99.90;;;;;;4982325;28;20243;-83
2022/03/07 02:31:24;;;;;;;3.90;3.63;;;1.80;99.90;;;;;;5050206;28;20231;-76
2022/03/07 02:33:51;;;;;;;4.30;4.00;;;1.90;99.90;;;;;;5024376;28;20602;-76
2022/03/07 02:36:18;;;;;;;4.27;3.93;;;1.90;99.90;;;;;;4987804;28;20222;-76
2022/03/07 02:38:45;;;;;;;4.67;4.27;;;1.90;99.90;;;;;;4984600;28;20263;-78
2022/03/07 02:41:13;;;;;;;4.17;3.77;;;1.90;99.90;;;;;;4996282;28;20581;-77
2022/03/07 02:43:39;;;;;;;4.30;4.00;;;1.90;99.90;;;;;;4995070;28;20202;-77
2022/03/07 02:46:06;;;;;;;4.23;3.83;;;1.90;99.90;;;;;;4986220;28;20650;-78
2022/03/07 02:48:33;;;;;;;5.13;3.93;;;1.90;99.90;;;;;;4977561;28;20210;-78
2022/03/07 02:51:00;;;;;;;4.23;3.93;;;1.90;99.90;;;;;;4994706;28;20210;-78
2022/03/07 02:53:29;;;;;;;4.67;3.57;;;1.80;99.90;;;;;;4983394;28;20230;-84
2022/03/07 02:55:56;;;;;;;4.20;3.90;;;1.80;99.90;;;;;;5007588;28;20229;-84
2022/03/07 02:58:25;;;;;;;4.27;3.83;;;1.80;99.90;;;;;;4991099;28;20218;-84
2022/03/07 03:00:51;;;;;;;3.67;3.47;;;1.70;99.90;;;;;;5007100;28;20209;-85
2022/03/07 03:03:18;;;;;;;4.47;4.07;;;1.70;99.90;;;;;;4988921;28;20206;-85
2022/03/07 03:05:45;;;;;;;3.77;3.50;;;1.70;99.90;;;;;;4995910;28;20267;-83
2022/03/07 03:08:11;;;;;;;4.00;3.70;;;1.70;99.90;;;;;;4996713;28;20283;-85
2022/03/07 03:10:38;;;;;;;4.40;3.43;;;1.70;99.90;;;;;;5042062;28;20214;-86
2022/03/07 03:13:05;;;;;;;4.07;3.70;;;1.70;99.90;;;;;;5044593;28;20234;-89
2022/03/07 03:15:33;;;;;;;5.13;3.90;;;1.60;99.90;;;;;;5033924;28;20211;-85
2022/03/07 03:17:59;;;;;;;3.63;3.43;;;1.60;99.90;;;;;;5044564;28;20211;-86
2022/03/07 03:20:26;;;;;;;4.20;3.90;;;1.60;99.90;;;;;;5027104;28;20561;-79
2022/03/07 03:22:53;;;;;;;3.87;3.57;;;1.60;99.90;;;;;;5009956;28;20232;-78
2022/03/07 03:25:19;;;;;;;3.87;3.57;;;1.60;99.90;;;;;;5015816;28;20244;-78
2022/03/07 03:27:46;;;;;;;4.20;3.70;;;1.60;99.90;;;;;;5053358;28;20426;-79
2022/03/07 03:30:14;;;;;;;3.73;3.53;;;1.60;99.90;;;;;;5001670;28;20222;-78
2022/03/07 03:32:42;;;;;;;3.90;3.70;;;1.60;99.90;;;;;;4997784;28;20295;-78
2022/03/07 03:35:09;;;;;;;4.10;3.80;;;1.50;99.90;;;;;;4997318;28;20211;-78
2022/03/07 03:37:40;;;;;;;4.27;3.97;;;1.50;99.90;;;;;;4985000;28;20206;-77
2022/03/07 03:40:19;;;;;;;4.77;4.23;;;1.40;99.90;;;;;;5000882;28;20247;-77
2022/03/07 03:42:46;;;;;;;4.57;4.17;;;1.40;99.90;;;;;;4996839;28;20210;-77
2022/03/07 03:45:13;;;;;;;4.27;3.97;;;1.40;99.90;;;;;;5011142;28;20214;-77
2022/03/07 03:47:43;;;;;;;3.90;3.60;;;1.40;99.90;;;;;;4990453;28;20987;-77
2022/03/07 03:50:13;;;;;;;4.37;3.97;;;1.40;99.90;;;;;;4995557;28;21011;-77
2022/03/07 03:52:40;;;;;;;6.30;4.43;;;1.30;99.90;;;;;;4974917;28;20727;-77
2022/03/07 03:55:09;;;;;;;4.17;3.87;;;1.30;99.90;;;;;;5021600;28;20611;-76
2022/03/07 03:57:36;;;;;;;6.03;4.20;;;1.30;99.90;;;;;;5054865;28;20210;-77
2022/03/07 04:00:03;;;;;;;4.10;3.80;;;1.30;99.90;;;;;;5021512;28;20199;-77
2022/03/07 04:02:30;;;;;;;4.30;3.47;;;1.30;99.90;;;;;;5053834;28;20270;-77
2022/03/07 04:04:58;;;;;;;4.13;3.70;;;1.30;99.90;;;;;;5020233;28;20212;-76
2022/03/07 04:07:25;;;;;;;4.30;3.90;;;1.30;99.90;;;;;;4993593;28;20296;-77
2022/03/07 04:09:52;;;;;;;4.27;3.87;;;1.30;99.90;;;;;;4999450;28;20716;-77
2022/03/07 04:12:18;;;;;;;4.93;3.90;;;1.30;99.90;;;;;;4992772;28;20234;-77
2022/03/07 04:14:45;;;;;;;4.00;3.70;;;1.30;99.90;;;;;;4990280;28;20210;-78
2022/03/07 04:17:11;;;;;;;6.07;4.27;;;1.20;99.90;;;;;;4985424;28;20683;-77
2022/03/07 04:19:38;;;;;;;4.43;4.03;;;1.20;99.90;;;;;;5003770;28;20273;-77
2022/03/07 04:22:06;;;;;;;5.70;4.47;;;1.10;99.90;;;;;;4992209;28;20202;-77
2022/03/07 04:24:35;;;;;;;4.83;4.37;;;1.10;99.90;;;;;;5024333;28;20256;-84
2022/03/07 04:27:01;;;;;;;4.43;4.10;;;1.10;99.90;;;;;;5066323;28;20217;-84
2022/03/07 04:29:28;;;;;;;4.57;4.10;;;1.10;99.90;;;;;;5008276;28;20669;-84
2022/03/07 04:31:55;;;;;;;4.30;4.00;;;1.10;99.90;;;;;;4989425;28;20206;-84
2022/03/07 04:34:21;;;;;;;4.37;4.07;;;1.10;99.90;;;;;;4992766;28;20263;-83
2022/03/07 04:36:48;;;;;;;4.80;4.30;;;1.20;99.90;;;;;;4998087;28;20267;-85
2022/03/07 04:39:16;;;;;;;4.23;3.83;;;1.20;99.90;;;;;;5000249;28;20299;-80
2022/03/07 04:41:44;;;;;;;4.37;4.07;;;1.20;99.90;;;;;;4970189;28;20263;-84
2022/03/07 04:44:11;;;;;;;4.47;4.07;;;1.20;99.90;;;;;;4999188;28;20206;-85
2022/03/07 04:46:37;;;;;;;4.50;4.20;;;1.30;99.90;;;;;;4971484;28;20264;-80
2022/03/07 04:49:05;;;;;;;4.30;4.00;;;1.30;99.90;;;;;;4997869;28;20681;-83
2022/03/07 04:51:32;;;;;;;4.33;4.03;;;1.30;99.90;;;;;;4985862;28;20214;-80
2022/03/07 04:53:58;;;;;;;4.50;4.10;;;1.30;99.90;;;;;;4994322;28;20233;-80
2022/03/07 04:56:26;;;;;;;4.30;3.90;;;1.30;99.90;;;;;;4990493;28;20230;-80
2022/03/07 04:58:53;;;;;;;5.30;4.20;;;1.30;99.90;;;;;;5000277;28;20207;-81
2022/03/07 05:01:20;;;;;;;6.13;5.53;;;1.40;99.90;;;;;;4991184;28;20214;-80
2022/03/07 05:03:47;;;;;;;6.27;5.60;;;1.20;99.90;;;;;;4993028;28;20199;-82
2022/03/07 05:06:13;;;;;;;5.57;4.87;;;1.30;99.90;;;;;;4989715;28;20218;-82
2022/03/07 05:08:40;;;;;;;5.00;4.13;;;1.30;99.90;;;;;;5004648;28;20284;-80
2022/03/07 05:11:07;;;;;;;4.93;4.53;;;1.40;99.90;;;;;;4991438;28;20214;-79
2022/03/07 05:13:35;;;;;;;4.90;4.50;;;1.40;99.90;;;;;;4999640;28;20234;-79
2022/03/07 05:16:05;;;;;;;5.93;4.93;;;1.40;99.90;;;;;;5069065;28;20211;-79
2022/03/07 05:18:32;;;;;;;4.40;4.00;;;1.40;99.90;;;;;;5005240;28;20293;-80
2022/03/07 05:20:59;;;;;;;5.40;4.77;;;1.40;99.90;;;;;;5000252;28;20202;-80
2022/03/07 05:23:26;;;;;;;5.33;4.83;;;1.50;99.90;;;;;;4991980;28;20580;-81
2022/03/07 05:25:52;;;;;;;5.90;4.87;;;1.30;99.90;;;;;;5075211;28;20670;-81
2022/03/07 05:28:19;;;;;;;6.57;5.67;;;1.30;99.90;;;;;;5003087;28;20213;-82
2022/03/07 05:30:48;;;;;;;4.77;4.37;;;1.20;99.90;;;;;;5005350;28;20217;-82
2022/03/07 05:33:14;;;;;;;5.70;4.70;;;1.10;99.90;;;;;;4990549;28;20242;-81
2022/03/07 05:35:41;;;;;;;6.20;4.27;;;1.10;99.90;;;;;;4992688;28;20210;-82
2022/03/07 05:38:08;;;;;;;4.63;4.23;;;1.00;99.90;;;;;;4986847;28;20214;-78
2022/03/07 05:40:35;;;;;;;4.57;4.17;;;1.00;99.90;;;;;;4998305;28;20210;-85
2022/03/07 05:43:02;;;;;;;4.63;4.13;;;1.00;99.90;;;;;;4999686;28;20234;-84
2022/03/07 05:45:29;;;;;;;5.13;4.73;;;1.00;99.90;;;;;;4989146;28;20206;-84
2022/03/07 05:47:57;;;;;;;5.03;4.37;;;0.90;99.90;;;;;;5009694;28;20203;-83
2022/03/07 05:50:24;;;;;;;5.50;4.00;;;1.00;99.90;;;;;;4989186;28;20686;-83
2022/03/07 05:52:50;;;;;;;6.50;4.43;;;1.10;99.90;;;;;;5004537;28;20718;-83
2022/03/07 05:55:17;;;;;;;4.93;4.53;;;1.10;99.90;;;;;;4995048;28;20206;-84
2022/03/07 05:57:44;;;;;;;5.87;4.53;;;1.00;99.90;;;;;;4991780;28;20238;-83
2022/03/07 06:00:11;;;;;;;4.87;4.23;;;1.00;99.90;;;;;;5058813;28;20205;-84
2022/03/07 06:02:38;;;;;;;5.50;4.53;;;1.00;99.90;;;;;;5023514;28;20214;-85
2022/03/07 06:05:07;;;;;;;5.40;4.40;;;1.00;99.90;;;;;;5003231;28;20544;-84
2022/03/07 06:07:34;;;;;;;5.17;4.67;;;0.90;99.90;;;;;;5005624;28;20208;-85
2022/03/07 06:10:00;;;;;;;6.07;4.87;;;1.00;99.90;;;;;;5004093;28;20239;-83
2022/03/07 06:12:27;;;;;;;5.17;4.47;;;1.00;99.90;;;;;;4986537;28;20590;-87
2022/03/07 06:14:54;;;;;;;5.03;4.63;;;1.00;99.90;;;;;;5014652;28;20206;-87
2022/03/07 06:17:21;;;;;;;4.67;4.23;;;1.10;99.90;;;;;;5001993;28;20297;-87
2022/03/07 06:19:48;;;;;;;5.87;4.33;;;1.20;99.90;;;;;;5001813;28;20632;-87
2022/03/07 06:22:16;;;;;;;5.13;4.67;;;1.20;99.90;;;;;;5004261;28;20207;-88
2022/03/07 06:24:43;;;;;;;5.07;4.27;;;1.20;99.90;;;;;;5070751;28;20298;-79
2022/03/07 06:27:09;;;;;;;4.73;4.33;;;1.30;99.90;;;;;;5029041;28;20206;-80
2022/03/07 06:29:36;;;;;;;5.10;4.63;;;1.40;99.90;;;;;;4993549;28;20216;-80
2022/03/07 06:32:06;;;;;;;5.57;4.67;;;1.40;99.90;;;;;;5004158;28;20206;-80
2022/03/07 06:34:34;;;;;;;7.03;5.27;;;1.20;99.90;;;;;;5035798;28;20279;-82
2022/03/07 06:37:01;;;;;;;6.33;5.43;;;1.20;99.90;;;;;;4997962;28;20205;-84
2022/03/07 06:39:29;;;;;;;6.83;5.33;;;1.10;99.90;;;;;;5002700;28;20326;-83
2022/03/07 06:41:56;;;;;;;6.10;5.60;;;0.90;99.90;;;;;;4995942;28;20202;-81
2022/03/07 06:44:23;;;;;;;6.40;5.47;;;1.00;99.90;;;;;;4997190;28;20209;-80
2022/03/07 06:46:50;;;;;;;5.67;5.03;;;1.00;99.90;;;;;;4996859;28;20206;-80
2022/03/07 06:49:16;;;;;;;6.80;5.27;;;1.00;99.90;;;;;;4993440;28;20206;-81
2022/03/07 06:51:43;;;;;;;6.77;5.20;;;1.10;99.90;;;;;;4982219;28;20215;-80
2022/03/07 06:54:09;;;;;;;5.93;5.17;;;1.10;99.90;;;;;;4993333;28;20239;-81
2022/03/07 06:56:38;;;;;;;5.67;5.13;;;1.10;99.90;;;;;;4999182;28;20230;-85
2022/03/07 06:59:04;;;;;;;6.30;5.13;;;1.10;99.90;;;;;;5005290;28;20685;-86
2022/03/07 07:01:31;;;;;;;5.47;4.83;;;1.20;99.90;;;;;;4999593;28;20206;-86
2022/03/07 07:03:58;;;;;;;6.83;5.47;;;1.30;99.90;;;;;;5002522;28;20272;-86
2022/03/07 07:06:24;;;;;;;5.80;5.13;;;1.30;99.90;;;;;;4987622;28;20215;-82
2022/03/07 07:08:51;;;;;;;6.00;5.50;;;1.20;99.90;;;;;;5002647;28;20222;-82
2022/03/07 07:11:18;;;;;;;7.90;5.70;;;1.20;99.90;;;;;;4985437;28;20210;-83
2022/03/07 07:13:46;;;;;;;6.27;5.67;;;1.30;99.90;;;;;;5000961;28;20246;-84
2022/03/07 07:16:12;;;;;;;6.40;5.80;;;1.30;99.90;;;;;;4995206;28;20244;-83
2022/03/07 07:18:39;;;;;;;5.83;5.33;;;1.30;99.90;;;;;;5013314;28;20210;-82
2022/03/07 07:21:06;;;;;;;7.07;6.00;;;1.30;99.90;;;;;;4992189;28;20295;-83
2022/03/07 07:23:33;;;;;;;6.60;5.93;;;1.40;99.90;;;;;;4988283;28;20672;-84
2022/03/07 07:25:59;;;;;;;6.50;5.90;;;1.40;99.90;;;;;;4990155;28;20260;-84
2022/03/07 07:28:28;;;;;;;6.20;5.60;;;1.50;99.90;;;;;;4997996;28;20218;-83
2022/03/07 07:30:56;;;;;;;8.00;5.83;;;1.60;99.90;;;;;;4992417;28;20213;-84
2022/03/07 07:33:24;;;;;;;6.13;5.53;;;1.60;99.90;;;;;;4997892;28;20263;-84
2022/03/07 07:35:53;;;;;;;7.90;6.00;;;1.70;99.90;;;;;;4990511;28;20214;-84
2022/03/07 07:38:25;;;;;;;6.13;5.40;;;1.80;99.90;;;;;;5007070;28;20267;-84
2022/03/07 07:40:55;;;;;;;7.20;5.37;;;1.90;99.90;;;;;;4985770;28;20280;-81
2022/03/07 07:43:22;;;;;;;6.23;5.63;;;1.90;99.90;;;;;;5000043;28;20225;-84
2022/03/07 07:45:48;;;;;;;7.77;6.13;;;1.90;99.90;;;;;;4984541;28;20207;-83
2022/03/07 07:48:16;;;;;;;6.80;6.20;;;2.00;99.90;;;;;;4996361;28;20967;-82
2022/03/07 07:50:43;;;;;;;7.10;5.77;;;2.00;99.90;;;;;;4983556;28;20203;-82
2022/03/07 07:53:10;;;;;;;7.53;6.03;;;2.10;99.90;;;;;;4998522;28;20245;-84
2022/03/07 07:55:37;;;;;;;6.77;6.07;;;2.20;99.90;;;;;;4980518;28;20263;-85
2022/03/07 07:58:03;;;;;;;7.30;6.10;;;2.20;99.90;;;;;;4998179;28;20236;-82
2022/03/07 08:00:30;;;;;;;7.47;6.43;;;2.30;99.90;;;;;;4994617;28;20214;-80
2022/03/07 08:02:57;;;;;;;6.93;5.90;;;2.40;99.90;;;;;;4998032;28;20206;-82
2022/03/07 08:05:25;;;;;;;7.27;5.80;;;2.50;99.90;;;;;;4978121;28;20214;-82
2022/03/07 08:07:52;;;;;;;7.27;5.77;;;2.50;99.90;;;;;;4990582;28;20234;-80
2022/03/07 08:10:19;;;;;;;6.60;5.77;;;2.60;99.90;;;;;;4982229;28;20203;-80
2022/03/07 08:12:46;;;;;;;6.83;6.10;;;2.80;99.90;;;;;;4991940;28;20222;-78
2022/03/07 08:15:14;;;;;;;7.07;6.43;;;2.80;99.90;;;;;;5000010;28;20222;-78
2022/03/07 08:17:46;;;;;;;7.23;5.93;;;2.80;99.90;;;;;;5020319;28;20230;-89
2022/03/07 08:20:13;;;;;;;5.70;5.20;;;2.90;99.90;;;;;;4985604;28;20221;-80
2022/03/07 08:22:41;;;;;;;6.93;6.23;;;3.00;99.90;;;;;;4985878;28;20210;-84
2022/03/07 08:25:08;;;;;;;8.57;6.23;;;3.10;99.90;;;;;;5005561;28;20202;-80
2022/03/07 08:27:35;;;;;;;7.00;6.23;;;3.10;99.90;;;;;;5007486;28;20673;-84
2022/03/07 08:30:02;;;;;;;6.90;6.30;;;3.20;99.90;;;;;;4986823;28;20688;-82
2022/03/07 08:32:28;;;;;;;6.63;6.03;;;3.20;99.90;;;;;;5003361;28;20672;-83
2022/03/07 08:34:57;;;;;;;7.37;5.73;;;3.40;99.90;;;;;;4983885;28;20312;-73
2022/03/07 08:37:23;;;;;;;6.53;5.93;;;3.40;99.90;;;;;;4990957;28;20231;-83
2022/03/07 08:39:51;;;;;;;6.20;5.50;;;3.50;99.90;;;;;;4983294;28;20609;-83
2022/03/07 08:42:19;;;;;;;6.47;5.87;;;3.70;99.90;;;;;;5007893;28;20272;-83
2022/03/07 08:44:45;;;;;;;6.27;5.67;;;3.80;99.90;;;;;;4986596;28;20786;-81
2022/03/07 08:47:13;;;;;;;6.73;6.03;;;3.90;99.90;;;;;;4998843;28;20271;-81
2022/03/07 08:49:40;;;;;;;6.53;5.80;;;4.00;99.90;;;;;;4986994;28;20303;-85
2022/03/07 08:52:08;;;;;;;8.23;6.50;;;4.10;99.90;;;;;;4994054;28;20268;-84
2022/03/07 08:54:34;;;;;;;6.83;6.13;;;4.20;99.90;;;;;;4998377;28;20238;-84
2022/03/07 08:57:03;;;;;;;8.13;6.40;;;4.30;99.90;;;;;;4992721;28;20284;-84
2022/03/07 08:59:29;;;;;;;7.00;6.03;;;4.40;99.90;;;;;;5007968;28;20259;-84
2022/03/07 09:01:57;;;;;;;8.23;6.30;;;4.50;99.90;;;;;;4994418;28;20214;-84
2022/03/07 09:04:24;;;;;;;8.80;5.57;;;4.50;99.90;;;;;;4995950;28;20253;-85
2022/03/07 09:06:52;;;;;;;5.80;5.30;;;4.60;99.90;;;;;;4993320;28;20233;-83
2022/03/07 09:09:19;;;;;;;6.90;4.67;;;4.70;99.90;;;;;;4997591;28;20234;-82
2022/03/07 09:11:46;;;;;;;6.63;5.70;;;4.80;99.90;;;;;;4995152;28;20399;-86
2022/03/07 09:14:14;;;;;;;6.00;5.50;;;4.90;99.90;;;;;;4993126;28;20237;-85
2022/03/07 09:16:41;;;;;;;5.10;4.70;;;5.00;99.90;;;;;;4998945;28;20210;-85
2022/03/07 09:19:07;;;;;;;5.70;5.10;;;5.10;99.90;;;;;;4989078;28;20259;-85
2022/03/07 09:21:41;;;;;;;5.20;4.70;;;5.10;99.90;;;;;;5009348;28;20263;-83
2022/03/07 09:24:08;;;;;;;5.17;4.77;;;5.30;99.90;;;;;;5005284;28;20213;-84
2022/03/07 09:26:34;;;;;;;5.23;4.73;;;5.30;99.90;;;;;;4994634;28;20210;-83
2022/03/07 09:29:01;;;;;;;7.93;5.13;;;5.30;99.90;;;;;;4993035;28;20252;-84
2022/03/07 09:31:30;;;;;;;6.37;5.20;;;5.40;99.90;;;;;;4996155;28;20251;-83
2022/03/07 09:33:57;;;;;;;5.60;4.83;;;5.40;99.90;;;;;;4995641;28;20417;-84
2022/03/07 09:36:24;;;;;;;5.83;5.27;;;5.50;99.90;;;;;;5017315;28;20211;-84
2022/03/07 09:38:51;;;;;;;5.70;5.20;;;5.50;99.90;;;;;;4991945;28;20210;-83
2022/03/07 09:41:21;;;;;;;5.70;5.20;;;5.50;99.90;;;;;;4996911;28;20678;-83
2022/03/07 09:43:48;;;;;;;5.63;5.13;;;5.60;99.90;;;;;;5046125;28;20745;-83
2022/03/07 09:46:16;;;;;;;6.37;4.97;;;5.70;99.90;;;;;;4999339;28;20210;-83
2022/03/07 09:48:45;;;;;;;5.43;5.00;;;5.70;99.90;;;;;;4991014;28;20210;-86
2022/03/07 09:51:12;;;;;;;6.23;5.60;;;5.70;99.90;;;;;;4997644;28;20276;-79
2022/03/07 09:53:38;;;;;;;6.00;5.50;;;5.80;99.90;;;;;;4996128;28;20295;-84
2022/03/07 09:56:06;;;;;;;7.00;5.63;;;5.80;99.90;;;;;;4997872;28;20238;-82
2022/03/07 09:58:33;;;;;;;6.40;5.80;;;5.90;99.90;;;;;;4984682;28;20214;-82
2022/03/07 10:01:08;;;;;;;6.60;5.33;;;6.00;99.90;;;;;;4992617;28;20283;-82
2022/03/07 10:03:35;;;;;;;6.27;4.97;;;6.10;99.90;;;;;;5010009;28;20203;-83
2022/03/07 10:06:12;;;;;;;6.63;5.90;;;6.10;99.90;;;;;;4984690;28;20210;-83
2022/03/07 10:08:39;;;;;;;6.47;5.87;;;6.10;99.90;;;;;;4986085;28;20226;-80
2022/03/07 10:11:10;;;;;;;6.10;5.60;;;6.10;99.90;;;;;;4992947;28;20210;-84
2022/03/07 10:13:37;;;;;;;8.47;6.10;;;6.30;99.90;;;;;;4981289;28;20242;-81
2022/03/07 10:16:09;;;;;;;6.37;5.77;;;6.20;99.90;;;;;;5008305;28;20262;-80
2022/03/07 10:18:36;;;;;;;6.30;5.63;;;6.30;99.90;;;;;;4990656;28;20218;-81
2022/03/07 10:21:07;;;;;;;6.37;5.87;;;6.40;99.90;;;;;;4991590;28;20292;-81
2022/03/07 10:23:34;;;;;;;6.20;5.70;;;6.50;99.90;;;;;;4987584;28;21020;-81
2022/03/07 10:26:08;;;;;;;7.27;5.13;;;6.50;99.90;;;;;;5000388;28;20225;-81
2022/03/07 10:28:36;;;;;;;5.67;5.07;;;6.70;99.90;;;;;;4983686;28;20236;-81
2022/03/07 10:31:13;;;;;;;5.07;4.57;;;6.70;99.90;;;;;;5001969;28;20222;-81
2022/03/07 10:33:39;;;;;;;5.13;4.70;;;6.80;99.90;;;;;;4984289;28;20213;-81
2022/03/07 10:36:08;;;;;;;5.53;4.87;;;6.90;99.90;;;;;;4984755;28;20199;-81
2022/03/07 10:38:35;;;;;;;5.57;5.10;;;6.90;99.90;;;;;;4984753;28;20297;-82
2022/03/07 10:41:04;;;;;;;5.00;4.60;;;7.00;99.90;;;;;;4982278;28;20690;-82
2022/03/07 10:43:31;;;;;;;5.87;4.90;;;7.10;99.90;;;;;;4989080;28;20259;-81
2022/03/07 10:45:59;;;;;;;5.93;5.33;;;7.20;99.90;;;;;;4993007;28;20214;-78
2022/03/07 10:48:30;;;;;;;6.03;5.53;;;7.20;99.90;;;;;;4988194;28;20215;-80
2022/03/07 10:50:59;;;;;;;6.27;5.07;;;7.20;99.90;;;;;;4991078;28;20244;-80
2022/03/07 10:53:27;;;;;;;7.50;5.60;;;7.20;99.90;;;;;;4984133;28;20339;-80
2022/03/07 10:55:55;;;;;;;5.17;4.47;;;7.40;99.90;;;;;;4987056;28;20241;-81
2022/03/07 10:58:23;;;;;;;5.03;4.63;;;7.40;99.90;;;;;;4981612;28;20271;-81
2022/03/07 11:00:52;;;;;;;5.60;5.10;;;7.50;99.90;;;;;;4990193;28;20214;-81
2022/03/07 11:03:20;;;;;;;6.00;5.30;;;7.60;99.90;;;;;;4984735;28;20226;-80
2022/03/07 11:05:48;;;;;;;5.80;5.30;;;7.60;99.90;;;;;;4996212;28;20230;-80
2022/03/07 11:08:15;;;;;;;5.93;5.43;;;7.60;99.90;;;;;;4992036;28;20705;-80
2022/03/07 11:10:46;;;;;;;6.57;5.13;;;7.80;99.90;;;;;;4993982;28;20202;-80
2022/03/07 11:13:16;;;;;;;5.33;4.93;;;7.80;99.90;;;;;;4999049;28;20206;-80
2022/03/07 11:15:44;;;;;;;4.80;4.43;;;7.90;99.90;;;;;;4992115;28;20241;-80
2022/03/07 11:18:12;;;;;;;5.37;4.97;;;8.10;99.90;;;;;;4989085;28;20210;-81
2022/03/07 11:20:41;;;;;;;5.13;4.73;;;8.20;99.90;;;;;;4994657;28;20214;-80
2022/03/07 11:23:09;;;;;;;6.07;5.57;;;8.30;99.90;;;;;;4990530;28;20301;-80
2022/03/07 11:25:36;;;;;;;6.17;5.60;;;8.30;99.90;;;;;;4987914;28;20226;-80
2022/03/07 11:28:05;;;;;;;5.33;4.93;;;8.30;99.90;;;;;;4996964;28;20256;-80
2022/03/07 11:30:35;;;;;;;6.00;5.40;;;8.50;99.90;;;;;;4988885;28;20241;-79
2022/03/07 11:33:10;;;;;;;3.90;3.60;;;8.60;99.90;;;;;;4987348;28;20211;-80
2022/03/07 11:35:37;;;;;;;3.90;3.60;;;8.70;99.90;;;;;;4985814;28;20325;-80
2022/03/07 11:38:12;;;;;;;3.20;3.00;;;8.90;99.90;;;;;;4988207;28;20252;-79
2022/03/07 11:40:57;;;;;;;3.80;3.50;;;9.00;99.90;;;;;;4979985;28;20209;-79
2022/03/07 11:43:28;;;;;;;4.77;4.40;;;9.20;99.90;;;;;;4984724;28;20226;-80
2022/03/07 11:45:56;;;;;;;5.53;5.13;;;9.20;99.90;;;;;;4989714;28;20217;-80
2022/03/07 11:48:23;;;;;;;5.20;4.70;;;9.30;99.90;;;;;;4987422;28;20654;-80
2022/03/07 11:50:50;;;;;;;4.40;4.10;;;9.20;99.90;;;;;;4991449;28;20206;-80
2022/03/07 11:53:19;;;;;;;4.17;3.83;;;9.50;99.90;;;;;;4982495;28;20202;-79
2022/03/07 11:55:47;;;;;;;2.60;2.50;;;9.60;99.90;;;;;;4986716;28;20354;-79
2022/03/07 11:58:14;;;;;;;2.57;2.43;;;9.70;99.90;;;;;;4989484;28;20255;-79
2022/03/07 12:00:44;;;;;;;2.47;2.33;;;9.80;99.90;;;;;;4980331;28;20210;-79
2022/03/07 12:03:13;;;;;;;3.07;2.80;;;9.90;99.90;;;;;;4977650;28;20210;-79
2022/03/07 12:05:41;;;;;;;3.00;2.80;;;10.00;99.80;;;;;;4993340;28;20286;-79
2022/03/07 12:08:10;;;;;;;5.10;3.33;;;9.90;99.20;;;;;;4985541;28;20226;-79
2022/03/07 12:10:39;;;;;;;3.73;3.43;;;9.90;99.90;;;;;;4995630;28;20255;-78
2022/03/07 12:13:08;;;;;;;3.17;2.97;;;10.00;99.90;;;;;;4978591;28;20302;-78
2022/03/07 12:15:45;;;;;;;7.23;2.80;;;10.20;99.30;;;;;;4982904;28;20234;-78
2022/03/07 12:18:12;;;;;;;2.97;2.77;;;10.10;99.50;;;;;;4983860;28;20723;-78
2022/03/07 12:20:54;;;;;;;7.77;2.70;;;10.20;98.30;;;;;;4998267;28;20237;-78
2022/03/07 12:23:23;;;;;;;2.87;2.67;;;10.30;99.10;;;;;;4998445;28;20578;-78
2022/03/07 12:25:57;;;;;;;3.27;3.00;;;10.50;98.70;;;;;;4995000;28;20692;-78
2022/03/07 12:28:28;;;;;;;3.17;2.83;;;10.70;99.10;;;;;;4986293;28;20259;-78
2022/03/07 12:30:56;;;;;;;3.10;2.90;;;10.80;99.20;;;;;;5005170;28;20206;-79
2022/03/07 12:33:23;;;;;;;3.40;3.10;;;10.90;98.50;;;;;;4997310;28;20210;-78
2022/03/07 12:35:59;;;;;;;7.37;2.90;;;11.00;97.70;;;;;;4997299;28;20238;-79
2022/03/07 12:38:26;;;;;;;3.67;2.73;;;10.90;97.70;;;;;;4987678;28;20206;-76
2022/03/07 12:40:54;;;;;;;2.30;2.10;;;11.00;97.90;;;;;;4995568;28;20242;-75
2022/03/07 12:43:21;;;;;;;4.53;2.70;;;11.20;97.50;;;;;;5004529;28;20213;-77
2022/03/07 12:45:48;;;;;;;2.77;2.57;;;11.30;97.40;;;;;;5002889;28;20240;-77
2022/03/07 12:48:16;;;;;;;2.97;2.63;;;11.40;96.80;;;;;;4987303;28;20725;-77
2022/03/07 12:50:43;;;;;;;3.77;2.97;;;11.50;97.00;;;;;;4997935;28;20215;-77
2022/03/07 12:53:14;;;;;;;2.97;2.77;;;11.60;97.30;;;;;;4989676;28;20214;-77
2022/03/07 12:55:41;;;;;;;3.43;3.13;;;11.70;97.10;;;;;;5005565;28;20238;-77
2022/03/07 12:58:07;;;;;;;3.83;3.10;;;11.90;96.90;;;;;;5078966;28;20214;-77